DRRT

Tahoua

Airport
ICAO code
DRRT
Summary
ICAO Region
AFI
ICAO Territory
Location

Tahoua,

Coordinates
14° 52' 33" N , 5° 15' 55" E
KCC
BSh
Metar
Observation
DRRT 161500Z 18008KT 9999 BKN030 30/21 Q1011
Station
Tahoua
Date/Time
2022-08-16 15:00:00
Wind direction
180°
Wind speed
08 kts
Lowest cloud amount
broken clouds
Temperature
30°C
Dew point
21°C
Humidity
58%
QNH
1011 hPa
Weather condition
n/a

Description

Airport serving the city of Tahoua, Niger.

Climatology

Hot, semi-arid/Steppe climate (Köppen climate classification BSh) - hot, sometimes extremely hot summers and mild to warm winters, with low annual precipitation.

Runways

Designator Length Width Surface Rops
6/24 2150 30 ASP No/No

Airport map

Aerial View

SKYbrary Partners:

Safety knowledge contributed by: